sensor_id;sensor_type;location;lat;lon;timestamp;temperature;humidity
65072;DHT22;51663;52.310;17.016;2023-08-08T00:00:11;30.70;35.50
65072;DHT22;51663;52.310;17.016;2023-08-08T00:03:34;30.80;35.40
65072;DHT22;51663;52.310;17.016;2023-08-08T00:06:37;30.80;35.60
65072;DHT22;51663;52.310;17.016;2023-08-08T00:09:42;30.80;35.70
65072;DHT22;51663;52.310;17.016;2023-08-08T00:12:44;30.80;35.50
65072;DHT22;51663;52.310;17.016;2023-08-08T00:15:47;30.80;35.70
65072;DHT22;51663;52.310;17.016;2023-08-08T00:18:50;30.70;35.50
65072;DHT22;51663;52.310;17.016;2023-08-08T00:21:55;30.80;35.60
65072;DHT22;51663;52.310;17.016;2023-08-08T00:24:58;30.70;35.50
65072;DHT22;51663;52.310;17.016;2023-08-08T00:28:01;30.70;35.50
65072;DHT22;51663;52.310;17.016;2023-08-08T00:31:03;30.70;35.50
65072;DHT22;51663;52.310;17.016;2023-08-08T00:34:06;30.60;35.80
65072;DHT22;51663;52.310;17.016;2023-08-08T00:37:08;30.40;36.20
65072;DHT22;51663;52.310;17.016;2023-08-08T00:40:11;30.50;36.50
65072;DHT22;51663;52.310;17.016;2023-08-08T00:43:13;30.50;36.20
65072;DHT22;51663;52.310;17.016;2023-08-08T00:46:20;30.30;36.70
65072;DHT22;51663;52.310;17.016;2023-08-08T00:49:24;30.30;36.50
65072;DHT22;51663;52.310;17.016;2023-08-08T00:52:27;30.00;37.00
65072;DHT22;51663;52.310;17.016;2023-08-08T00:55:30;30.40;36.90
65072;DHT22;51663;52.310;17.016;2023-08-08T00:58:33;30.70;36.10
65072;DHT22;51663;52.310;17.016;2023-08-08T01:01:35;30.60;36.20
65072;DHT22;51663;52.310;17.016;2023-08-08T01:04:39;31.00;35.80
65072;DHT22;51663;52.310;17.016;2023-08-08T01:10:49;30.90;35.80
65072;DHT22;51663;52.310;17.016;2023-08-08T01:13:53;31.10;35.40
65072;DHT22;51663;52.310;17.016;2023-08-08T01:16:57;31.10;35.30
65072;DHT22;51663;52.310;17.016;2023-08-08T01:20:00;31.10;35.00
65072;DHT22;51663;52.310;17.016;2023-08-08T01:26:24;31.20;34.90
65072;DHT22;51663;52.310;17.016;2023-08-08T01:29:28;31.00;34.90
65072;DHT22;51663;52.310;17.016;2023-08-08T01:32:30;30.50;35.20
65072;DHT22;51663;52.310;17.016;2023-08-08T01:35:38;30.00;36.50
65072;DHT22;51663;52.310;17.016;2023-08-08T01:38:44;29.80;36.80
65072;DHT22;51663;52.310;17.016;2023-08-08T01:41:50;30.30;36.20
65072;DHT22;51663;52.310;17.016;2023-08-08T01:44:55;30.50;35.70
65072;DHT22;51663;52.310;17.016;2023-08-08T01:47:58;30.40;35.60
65072;DHT22;51663;52.310;17.016;2023-08-08T01:51:00;30.60;35.40
65072;DHT22;51663;52.310;17.016;2023-08-08T01:54:03;29.80;36.00
65072;DHT22;51663;52.310;17.016;2023-08-08T01:57:05;29.90;35.70
65072;DHT22;51663;52.310;17.016;2023-08-08T02:00:08;29.50;36.60
65072;DHT22;51663;52.310;17.016;2023-08-08T02:03:12;29.10;37.50
65072;DHT22;51663;52.310;17.016;2023-08-08T02:06:15;29.10;37.60
65072;DHT22;51663;52.310;17.016;2023-08-08T02:09:18;29.60;36.90
65072;DHT22;51663;52.310;17.016;2023-08-08T02:12:23;29.50;36.90
65072;DHT22;51663;52.310;17.016;2023-08-08T02:15:25;29.70;36.90
65072;DHT22;51663;52.310;17.016;2023-08-08T02:18:27;29.80;36.20
65072;DHT22;51663;52.310;17.016;2023-08-08T02:21:29;29.90;36.40
65072;DHT22;51663;52.310;17.016;2023-08-08T02:24:32;30.20;36.00
65072;DHT22;51663;52.310;17.016;2023-08-08T02:27:34;30.30;35.80
65072;DHT22;51663;52.310;17.016;2023-08-08T02:30:37;29.80;36.30
65072;DHT22;51663;52.310;17.016;2023-08-08T02:33:39;29.80;36.10
65072;DHT22;51663;52.310;17.016;2023-08-08T02:36:42;30.20;36.20
65072;DHT22;51663;52.310;17.016;2023-08-08T02:39:44;30.00;36.40
65072;DHT22;51663;52.310;17.016;2023-08-08T02:42:47;30.00;36.20
65072;DHT22;51663;52.310;17.016;2023-08-08T02:45:49;29.70;36.30
65072;DHT22;51663;52.310;17.016;2023-08-08T02:48:51;29.50;36.70
65072;DHT22;51663;52.310;17.016;2023-08-08T02:51:53;29.70;36.80
65072;DHT22;51663;52.310;17.016;2023-08-08T02:54:56;29.20;37.50
65072;DHT22;51663;52.310;17.016;2023-08-08T02:57:58;29.40;37.10
65072;DHT22;51663;52.310;17.016;2023-08-08T03:01:00;29.40;37.10
65072;DHT22;51663;52.310;17.016;2023-08-08T03:04:03;29.40;37.40
65072;DHT22;51663;52.310;17.016;2023-08-08T03:07:06;29.40;37.50
65072;DHT22;51663;52.310;17.016;2023-08-08T03:10:09;29.80;36.80
65072;DHT22;51663;52.310;17.016;2023-08-08T03:13:11;29.70;36.50
65072;DHT22;51663;52.310;17.016;2023-08-08T03:16:13;29.40;37.40
65072;DHT22;51663;52.310;17.016;2023-08-08T03:19:16;29.80;36.90
65072;DHT22;51663;52.310;17.016;2023-08-08T03:22:20;29.50;37.10
65072;DHT22;51663;52.310;17.016;2023-08-08T03:25:22;29.30;37.10
65072;DHT22;51663;52.310;17.016;2023-08-08T03:28:24;29.70;37.00
65072;DHT22;51663;52.310;17.016;2023-08-08T03:31:27;30.00;36.50
65072;DHT22;51663;52.310;17.016;2023-08-08T03:34:29;30.20;36.10
65072;DHT22;51663;52.310;17.016;2023-08-08T03:37:34;30.30;35.90
65072;DHT22;51663;52.310;17.016;2023-08-08T03:40:36;30.40;35.90
65072;DHT22;51663;52.310;17.016;2023-08-08T03:43:40;30.40;35.50
65072;DHT22;51663;52.310;17.016;2023-08-08T03:46:42;30.50;35.40
65072;DHT22;51663;52.310;17.016;2023-08-08T03:49:46;30.50;35.30
65072;DHT22;51663;52.310;17.016;2023-08-08T03:52:51;30.60;35.20
65072;DHT22;51663;52.310;17.016;2023-08-08T03:55:53;30.50;35.30
65072;DHT22;51663;52.310;17.016;2023-08-08T03:58:57;29.80;36.00
65072;DHT22;51663;52.310;17.016;2023-08-08T04:01:59;30.30;35.80
65072;DHT22;51663;52.310;17.016;2023-08-08T04:05:03;30.40;35.40
65072;DHT22;51663;52.310;17.016;2023-08-08T04:08:06;30.30;35.30
65072;DHT22;51663;52.310;17.016;2023-08-08T04:11:10;30.10;35.70
65072;DHT22;51663;52.310;17.016;2023-08-08T04:14:12;29.90;36.10
65072;DHT22;51663;52.310;17.016;2023-08-08T04:17:14;29.80;36.40
65072;DHT22;51663;52.310;17.016;2023-08-08T04:20:16;30.00;36.20
65072;DHT22;51663;52.310;17.016;2023-08-08T04:23:19;30.20;35.80
65072;DHT22;51663;52.310;17.016;2023-08-08T04:26:21;30.70;34.80
65072;DHT22;51663;52.310;17.016;2023-08-08T04:29:23;30.20;35.50
65072;DHT22;51663;52.310;17.016;2023-08-08T04:32:26;30.10;35.50
65072;DHT22;51663;52.310;17.016;2023-08-08T04:35:28;29.80;36.30
65072;DHT22;51663;52.310;17.016;2023-08-08T04:38:32;30.10;35.80
65072;DHT22;51663;52.310;17.016;2023-08-08T04:41:34;29.90;35.80
65072;DHT22;51663;52.310;17.016;2023-08-08T04:44:36;30.40;35.40
65072;DHT22;51663;52.310;17.016;2023-08-08T04:47:39;30.70;35.50
65072;DHT22;51663;52.310;17.016;2023-08-08T04:50:41;30.80;34.60
65072;DHT22;51663;52.310;17.016;2023-08-08T04:53:43;30.60;34.80
65072;DHT22;51663;52.310;17.016;2023-08-08T04:56:46;30.70;34.50
65072;DHT22;51663;52.310;17.016;2023-08-08T04:59:49;30.70;34.40
65072;DHT22;51663;52.310;17.016;2023-08-08T05:02:52;30.90;34.00
65072;DHT22;51663;52.310;17.016;2023-08-08T05:05:55;30.60;34.50
65072;DHT22;51663;52.310;17.016;2023-08-08T05:08:58;30.60;34.80
65072;DHT22;51663;52.310;17.016;2023-08-08T05:12:01;30.80;34.30
65072;DHT22;51663;52.310;17.016;2023-08-08T05:15:05;31.10;34.10
65072;DHT22;51663;52.310;17.016;2023-08-08T05:18:10;31.40;33.70
65072;DHT22;51663;52.310;17.016;2023-08-08T05:21:12;31.60;33.40
65072;DHT22;51663;52.310;17.016;2023-08-08T05:24:14;31.40;33.70
65072;DHT22;51663;52.310;17.016;2023-08-08T05:27:17;31.60;33.20
65072;DHT22;51663;52.310;17.016;2023-08-08T05:30:21;32.40;33.10
65072;DHT22;51663;52.310;17.016;2023-08-08T05:33:24;33.70;31.50
65072;DHT22;51663;52.310;17.016;2023-08-08T05:36:26;34.40;30.30
65072;DHT22;51663;52.310;17.016;2023-08-08T05:39:30;34.70;29.60
65072;DHT22;51663;52.310;17.016;2023-08-08T05:42:33;34.50;29.30
65072;DHT22;51663;52.310;17.016;2023-08-08T05:45:36;34.20;29.90
65072;DHT22;51663;52.310;17.016;2023-08-08T05:48:38;34.00;30.20
65072;DHT22;51663;52.310;17.016;2023-08-08T05:51:42;34.30;30.00
65072;DHT22;51663;52.310;17.016;2023-08-08T05:54:44;34.50;29.70
65072;DHT22;51663;52.310;17.016;2023-08-08T05:57:47;34.60;29.20
65072;DHT22;51663;52.310;17.016;2023-08-08T06:00:50;34.80;29.50
65072;DHT22;51663;52.310;17.016;2023-08-08T06:03:52;35.10;29.20
65072;DHT22;51663;52.310;17.016;2023-08-08T06:06:55;35.70;28.90
65072;DHT22;51663;52.310;17.016;2023-08-08T06:09:57;35.80;28.90
65072;DHT22;51663;52.310;17.016;2023-08-08T06:12:59;36.20;27.90
65072;DHT22;51663;52.310;17.016;2023-08-08T06:16:02;36.10;28.30
65072;DHT22;51663;52.310;17.016;2023-08-08T06:19:09;36.00;28.10
65072;DHT22;51663;52.310;17.016;2023-08-08T06:22:15;35.80;27.70
65072;DHT22;51663;52.310;17.016;2023-08-08T06:25:18;35.50;28.60
65072;DHT22;51663;52.310;17.016;2023-08-08T06:28:20;35.10;28.90
65072;DHT22;51663;52.310;17.016;2023-08-08T06:31:22;34.50;29.10
65072;DHT22;51663;52.310;17.016;2023-08-08T06:34:26;34.60;29.60
65072;DHT22;51663;52.310;17.016;2023-08-08T06:37:31;34.20;29.20
65072;DHT22;51663;52.310;17.016;2023-08-08T06:40:33;34.00;30.00
65072;DHT22;51663;52.310;17.016;2023-08-08T06:43:35;34.70;29.90
65072;DHT22;51663;52.310;17.016;2023-08-08T06:46:39;35.60;29.80
65072;DHT22;51663;52.310;17.016;2023-08-08T06:49:43;36.20;29.50
65072;DHT22;51663;52.310;17.016;2023-08-08T06:52:46;37.00;28.20
65072;DHT22;51663;52.310;17.016;2023-08-08T06:55:48;37.30;27.60
65072;DHT22;51663;52.310;17.016;2023-08-08T06:58:50;37.70;27.40
65072;DHT22;51663;52.310;17.016;2023-08-08T07:01:53;37.80;27.40
65072;DHT22;51663;52.310;17.016;2023-08-08T07:04:55;37.60;27.40
65072;DHT22;51663;52.310;17.016;2023-08-08T07:07:59;37.70;27.60
65072;DHT22;51663;52.310;17.016;2023-08-08T07:11:02;38.30;27.60
65072;DHT22;51663;52.310;17.016;2023-08-08T07:14:04;38.40;27.20
65072;DHT22;51663;52.310;17.016;2023-08-08T07:17:06;38.70;27.30
65072;DHT22;51663;52.310;17.016;2023-08-08T07:20:08;38.90;26.40
65072;DHT22;51663;52.310;17.016;2023-08-08T07:23:11;38.80;26.00
65072;DHT22;51663;52.310;17.016;2023-08-08T07:26:13;38.20;26.50
65072;DHT22;51663;52.310;17.016;2023-08-08T07:29:15;37.80;26.80
65072;DHT22;51663;52.310;17.016;2023-08-08T07:32:18;37.40;27.20
65072;DHT22;51663;52.310;17.016;2023-08-08T07:35:20;37.00;27.80
65072;DHT22;51663;52.310;17.016;2023-08-08T07:38:22;36.80;27.80
65072;DHT22;51663;52.310;17.016;2023-08-08T07:41:26;36.30;28.10
65072;DHT22;51663;52.310;17.016;2023-08-08T07:44:29;36.20;28.60
65072;DHT22;51663;52.310;17.016;2023-08-08T07:47:33;36.40;28.70
65072;DHT22;51663;52.310;17.016;2023-08-08T07:50:35;36.40;28.60
65072;DHT22;51663;52.310;17.016;2023-08-08T07:53:38;36.20;28.20
65072;DHT22;51663;52.310;17.016;2023-08-08T07:56:40;36.10;28.10
65072;DHT22;51663;52.310;17.016;2023-08-08T07:59:42;36.00;28.70
65072;DHT22;51663;52.310;17.016;2023-08-08T08:02:45;35.60;28.90
65072;DHT22;51663;52.310;17.016;2023-08-08T08:05:48;35.40;29.30
65072;DHT22;51663;52.310;17.016;2023-08-08T08:08:50;35.50;29.80
65072;DHT22;51663;52.310;17.016;2023-08-08T08:11:53;35.40;29.40
65072;DHT22;51663;52.310;17.016;2023-08-08T08:14:55;35.50;29.10
65072;DHT22;51663;52.310;17.016;2023-08-08T08:17:57;35.40;29.20
65072;DHT22;51663;52.310;17.016;2023-08-08T08:20:59;35.30;29.10
65072;DHT22;51663;52.310;17.016;2023-08-08T08:24:03;34.80;29.60
65072;DHT22;51663;52.310;17.016;2023-08-08T08:27:05;34.80;29.60
65072;DHT22;51663;52.310;17.016;2023-08-08T08:30:08;34.30;29.90
65072;DHT22;51663;52.310;17.016;2023-08-08T08:33:12;34.60;30.20
65072;DHT22;51663;52.310;17.016;2023-08-08T08:36:14;34.70;30.20
65072;DHT22;51663;52.310;17.016;2023-08-08T08:39:19;35.20;30.30
65072;DHT22;51663;52.310;17.016;2023-08-08T08:42:22;35.40;30.00
65072;DHT22;51663;52.310;17.016;2023-08-08T08:45:25;35.70;29.20
65072;DHT22;51663;52.310;17.016;2023-08-08T08:48:28;35.70;29.00
65072;DHT22;51663;52.310;17.016;2023-08-08T08:51:31;35.80;29.00
65072;DHT22;51663;52.310;17.016;2023-08-08T08:54:34;35.40;29.40
65072;DHT22;51663;52.310;17.016;2023-08-08T08:57:40;35.70;28.90
65072;DHT22;51663;52.310;17.016;2023-08-08T09:00:44;35.70;28.50
65072;DHT22;51663;52.310;17.016;2023-08-08T09:03:48;35.60;28.50
65072;DHT22;51663;52.310;17.016;2023-08-08T09:06:51;35.40;29.20
65072;DHT22;51663;52.310;17.016;2023-08-08T09:09:53;35.40;29.30
65072;DHT22;51663;52.310;17.016;2023-08-08T09:12:56;35.30;29.20
65072;DHT22;51663;52.310;17.016;2023-08-08T09:15:59;35.30;29.20
65072;DHT22;51663;52.310;17.016;2023-08-08T09:19:02;34.90;29.20
65072;DHT22;51663;52.310;17.016;2023-08-08T09:22:06;34.70;29.40
65072;DHT22;51663;52.310;17.016;2023-08-08T09:25:10;34.20;30.00
65072;DHT22;51663;52.310;17.016;2023-08-08T09:28:12;33.90;30.40
65072;DHT22;51663;52.310;17.016;2023-08-08T09:31:16;33.80;30.40
65072;DHT22;51663;52.310;17.016;2023-08-08T09:34:18;33.90;31.00
65072;DHT22;51663;52.310;17.016;2023-08-08T09:37:28;33.80;30.00
65072;DHT22;51663;52.310;17.016;2023-08-08T09:40:30;34.30;30.00
65072;DHT22;51663;52.310;17.016;2023-08-08T09:43:33;34.80;30.20
65072;DHT22;51663;52.310;17.016;2023-08-08T09:46:39;35.20;29.30
65072;DHT22;51663;52.310;17.016;2023-08-08T09:49:43;35.60;29.80
65072;DHT22;51663;52.310;17.016;2023-08-08T09:52:47;35.50;29.20
65072;DHT22;51663;52.310;17.016;2023-08-08T09:55:49;35.90;29.40
65072;DHT22;51663;52.310;17.016;2023-08-08T09:58:52;36.20;29.70
65072;DHT22;51663;52.310;17.016;2023-08-08T10:01:56;36.00;28.80
65072;DHT22;51663;52.310;17.016;2023-08-08T10:05:00;36.20;28.60
65072;DHT22;51663;52.310;17.016;2023-08-08T10:08:03;36.40;28.00
65072;DHT22;51663;52.310;17.016;2023-08-08T10:11:07;36.10;28.70
65072;DHT22;51663;52.310;17.016;2023-08-08T10:14:11;35.70;28.60
65072;DHT22;51663;52.310;17.016;2023-08-08T10:17:15;35.90;28.50
65072;DHT22;51663;52.310;17.016;2023-08-08T10:20:19;36.00;27.70
65072;DHT22;51663;52.310;17.016;2023-08-08T10:23:22;36.10;28.50
65072;DHT22;51663;52.310;17.016;2023-08-08T10:26:24;36.40;27.70
65072;DHT22;51663;52.310;17.016;2023-08-08T10:29:32;36.40;27.50
65072;DHT22;51663;52.310;17.016;2023-08-08T10:32:44;36.50;27.50
65072;DHT22;51663;52.310;17.016;2023-08-08T10:36:00;36.10;28.10
65072;DHT22;51663;52.310;17.016;2023-08-08T10:39:03;36.40;27.80
65072;DHT22;51663;52.310;17.016;2023-08-08T10:42:05;36.60;27.70
65072;DHT22;51663;52.310;17.016;2023-08-08T10:45:11;36.60;27.60
65072;DHT22;51663;52.310;17.016;2023-08-08T10:48:15;36.20;27.90
65072;DHT22;51663;52.310;17.016;2023-08-08T10:51:18;36.30;28.70
65072;DHT22;51663;52.310;17.016;2023-08-08T10:54:25;35.60;28.70
65072;DHT22;51663;52.310;17.016;2023-08-08T10:57:33;35.40;29.00
65072;DHT22;51663;52.310;17.016;2023-08-08T11:00:37;35.60;29.90
65072;DHT22;51663;52.310;17.016;2023-08-08T11:03:42;35.30;29.40
65072;DHT22;51663;52.310;17.016;2023-08-08T11:06:44;35.60;28.80
65072;DHT22;51663;52.310;17.016;2023-08-08T11:09:49;35.90;28.20
65072;DHT22;51663;52.310;17.016;2023-08-08T11:12:58;35.20;29.30
65072;DHT22;51663;52.310;17.016;2023-08-08T11:16:01;35.00;30.00
65072;DHT22;51663;52.310;17.016;2023-08-08T11:19:05;34.80;30.60
65072;DHT22;51663;52.310;17.016;2023-08-08T11:22:11;34.90;30.90
65072;DHT22;51663;52.310;17.016;2023-08-08T11:25:14;35.10;30.40
65072;DHT22;51663;52.310;17.016;2023-08-08T11:28:17;35.00;30.60
65072;DHT22;51663;52.310;17.016;2023-08-08T11:31:23;34.50;32.00
65072;DHT22;51663;52.310;17.016;2023-08-08T11:34:26;34.70;31.20
65072;DHT22;51663;52.310;17.016;2023-08-08T11:37:31;34.70;30.80
65072;DHT22;51663;52.310;17.016;2023-08-08T11:40:36;34.90;30.60
65072;DHT22;51663;52.310;17.016;2023-08-08T11:43:41;35.00;30.30
65072;DHT22;51663;52.310;17.016;2023-08-08T11:46:44;34.80;30.50
65072;DHT22;51663;52.310;17.016;2023-08-08T11:49:48;34.80;30.60
65072;DHT22;51663;52.310;17.016;2023-08-08T11:52:52;34.50;31.00
65072;DHT22;51663;52.310;17.016;2023-08-08T11:55:59;34.70;31.50
65072;DHT22;51663;52.310;17.016;2023-08-08T11:59:04;34.40;31.60
65072;DHT22;51663;52.310;17.016;2023-08-08T12:02:07;33.90;32.10
65072;DHT22;51663;52.310;17.016;2023-08-08T12:05:14;33.90;33.50
65072;DHT22;51663;52.310;17.016;2023-08-08T12:08:19;34.40;35.20
65072;DHT22;51663;52.310;17.016;2023-08-08T12:11:22;34.60;35.30
65072;DHT22;51663;52.310;17.016;2023-08-08T12:14:27;34.50;35.50
65072;DHT22;51663;52.310;17.016;2023-08-08T12:17:31;34.40;37.60
65072;DHT22;51663;52.310;17.016;2023-08-08T12:20:33;34.20;38.20
65072;DHT22;51663;52.310;17.016;2023-08-08T12:23:36;34.30;37.70
65072;DHT22;51663;52.310;17.016;2023-08-08T12:26:38;33.90;36.90
65072;DHT22;51663;52.310;17.016;2023-08-08T12:29:40;34.10;36.20
65072;DHT22;51663;52.310;17.016;2023-08-08T12:32:42;33.70;36.70
65072;DHT22;51663;52.310;17.016;2023-08-08T12:35:46;33.80;37.50
65072;DHT22;51663;52.310;17.016;2023-08-08T12:38:49;33.90;37.60
65072;DHT22;51663;52.310;17.016;2023-08-08T12:41:51;34.20;36.00
65072;DHT22;51663;52.310;17.016;2023-08-08T12:44:54;34.00;35.90
65072;DHT22;51663;52.310;17.016;2023-08-08T12:47:56;33.70;35.90
65072;DHT22;51663;52.310;17.016;2023-08-08T12:50:58;33.90;35.90
65072;DHT22;51663;52.310;17.016;2023-08-08T12:54:01;34.40;35.70
65072;DHT22;51663;52.310;17.016;2023-08-08T12:57:03;34.40;35.40
65072;DHT22;51663;52.310;17.016;2023-08-08T13:00:07;34.90;36.00
65072;DHT22;51663;52.310;17.016;2023-08-08T13:03:10;35.00;35.10
65072;DHT22;51663;52.310;17.016;2023-08-08T13:06:16;35.10;35.70
65072;DHT22;51663;52.310;17.016;2023-08-08T13:09:18;35.30;34.20
65072;DHT22;51663;52.310;17.016;2023-08-08T13:12:20;35.60;33.70
65072;DHT22;51663;52.310;17.016;2023-08-08T13:15:23;35.90;34.80
65072;DHT22;51663;52.310;17.016;2023-08-08T13:18:25;35.80;34.60
65072;DHT22;51663;52.310;17.016;2023-08-08T13:21:28;35.60;34.50
65072;DHT22;51663;52.310;17.016;2023-08-08T13:24:31;35.00;34.90
65072;DHT22;51663;52.310;17.016;2023-08-08T13:27:34;35.00;34.00
65072;DHT22;51663;52.310;17.016;2023-08-08T13:30:36;35.10;33.90
65072;DHT22;51663;52.310;17.016;2023-08-08T13:33:39;34.90;34.20
65072;DHT22;51663;52.310;17.016;2023-08-08T13:36:41;35.00;34.20
65072;DHT22;51663;52.310;17.016;2023-08-08T13:39:43;35.20;34.00
65072;DHT22;51663;52.310;17.016;2023-08-08T13:42:46;35.30;33.00
65072;DHT22;51663;52.310;17.016;2023-08-08T13:45:51;35.40;33.10
65072;DHT22;51663;52.310;17.016;2023-08-08T13:48:53;35.40;33.30
65072;DHT22;51663;52.310;17.016;2023-08-08T13:51:55;35.50;33.40
65072;DHT22;51663;52.310;17.016;2023-08-08T13:54:58;35.60;33.80
65072;DHT22;51663;52.310;17.016;2023-08-08T13:58:01;35.80;33.40
65072;DHT22;51663;52.310;17.016;2023-08-08T14:01:04;35.90;33.30
65072;DHT22;51663;52.310;17.016;2023-08-08T14:04:06;35.90;33.00
65072;DHT22;51663;52.310;17.016;2023-08-08T14:07:08;35.90;33.50
65072;DHT22;51663;52.310;17.016;2023-08-08T14:10:10;36.00;33.40
65072;DHT22;51663;52.310;17.016;2023-08-08T14:13:13;36.00;33.30
65072;DHT22;51663;52.310;17.016;2023-08-08T14:16:15;36.00;33.30
65072;DHT22;51663;52.310;17.016;2023-08-08T14:19:18;36.20;32.90
65072;DHT22;51663;52.310;17.016;2023-08-08T14:22:20;36.30;31.80
65072;DHT22;51663;52.310;17.016;2023-08-08T14:25:23;36.40;31.70
65072;DHT22;51663;52.310;17.016;2023-08-08T14:28:25;36.20;32.10
65072;DHT22;51663;52.310;17.016;2023-08-08T14:31:30;35.90;32.30
65072;DHT22;51663;52.310;17.016;2023-08-08T14:34:34;35.90;32.80
65072;DHT22;51663;52.310;17.016;2023-08-08T14:37:36;35.30;33.90
65072;DHT22;51663;52.310;17.016;2023-08-08T14:40:38;35.40;34.50
65072;DHT22;51663;52.310;17.016;2023-08-08T14:43:41;34.80;35.10
65072;DHT22;51663;52.310;17.016;2023-08-08T14:46:46;34.60;37.50
65072;DHT22;51663;52.310;17.016;2023-08-08T14:49:49;34.60;37.40
65072;DHT22;51663;52.310;17.016;2023-08-08T14:52:53;34.50;38.50
65072;DHT22;51663;52.310;17.016;2023-08-08T14:55:56;34.70;37.20
65072;DHT22;51663;52.310;17.016;2023-08-08T14:58:58;34.40;37.40
65072;DHT22;51663;52.310;17.016;2023-08-08T15:02:01;34.50;37.90
65072;DHT22;51663;52.310;17.016;2023-08-08T15:05:05;34.60;38.10
65072;DHT22;51663;52.310;17.016;2023-08-08T15:08:10;34.80;37.50
65072;DHT22;51663;52.310;17.016;2023-08-08T15:11:13;34.90;37.40
65072;DHT22;51663;52.310;17.016;2023-08-08T15:14:16;35.00;36.60
65072;DHT22;51663;52.310;17.016;2023-08-08T15:17:20;35.10;37.00
65072;DHT22;51663;52.310;17.016;2023-08-08T15:20:29;35.10;36.40
65072;DHT22;51663;52.310;17.016;2023-08-08T15:23:32;35.10;36.10
65072;DHT22;51663;52.310;17.016;2023-08-08T15:26:34;35.10;35.60
65072;DHT22;51663;52.310;17.016;2023-08-08T15:29:36;35.10;34.70
65072;DHT22;51663;52.310;17.016;2023-08-08T15:32:39;35.10;35.30
65072;DHT22;51663;52.310;17.016;2023-08-08T15:35:42;35.10;35.50
65072;DHT22;51663;52.310;17.016;2023-08-08T15:38:45;35.30;36.10
65072;DHT22;51663;52.310;17.016;2023-08-08T15:41:47;35.30;35.40
65072;DHT22;51663;52.310;17.016;2023-08-08T15:44:50;35.30;34.40
65072;DHT22;51663;52.310;17.016;2023-08-08T15:47:53;35.30;36.00
65072;DHT22;51663;52.310;17.016;2023-08-08T15:50:56;35.30;35.60
65072;DHT22;51663;52.310;17.016;2023-08-08T15:53:59;35.10;35.40
65072;DHT22;51663;52.310;17.016;2023-08-08T15:57:02;34.80;33.60
65072;DHT22;51663;52.310;17.016;2023-08-08T16:00:08;33.50;36.40
65072;DHT22;51663;52.310;17.016;2023-08-08T16:03:12;32.60;38.30
65072;DHT22;51663;52.310;17.016;2023-08-08T16:06:15;32.20;38.80
65072;DHT22;51663;52.310;17.016;2023-08-08T16:09:18;32.00;40.10
65072;DHT22;51663;52.310;17.016;2023-08-08T16:12:21;31.90;40.50
65072;DHT22;51663;52.310;17.016;2023-08-08T16:15:24;31.80;40.50
65072;DHT22;51663;52.310;17.016;2023-08-08T16:18:28;31.50;41.40
65072;DHT22;51663;52.310;17.016;2023-08-08T16:21:31;31.50;40.90
65072;DHT22;51663;52.310;17.016;2023-08-08T16:24:33;31.40;40.30
65072;DHT22;51663;52.310;17.016;2023-08-08T16:27:35;30.80;41.30
65072;DHT22;51663;52.310;17.016;2023-08-08T16:30:38;31.00;41.30
65072;DHT22;51663;52.310;17.016;2023-08-08T16:33:41;30.80;41.10
65072;DHT22;51663;52.310;17.016;2023-08-08T16:36:45;31.00;41.90
65072;DHT22;51663;52.310;17.016;2023-08-08T16:39:50;31.20;41.40
65072;DHT22;51663;52.310;17.016;2023-08-08T16:42:52;31.30;41.70
65072;DHT22;51663;52.310;17.016;2023-08-08T16:45:55;31.40;42.50
65072;DHT22;51663;52.310;17.016;2023-08-08T16:48:57;31.60;41.90
65072;DHT22;51663;52.310;17.016;2023-08-08T16:51:59;31.70;42.10
65072;DHT22;51663;52.310;17.016;2023-08-08T16:55:02;31.80;42.10
65072;DHT22;51663;52.310;17.016;2023-08-08T16:58:05;31.80;41.60
65072;DHT22;51663;52.310;17.016;2023-08-08T17:01:07;32.00;42.00
65072;DHT22;51663;52.310;17.016;2023-08-08T17:04:11;32.20;42.20
65072;DHT22;51663;52.310;17.016;2023-08-08T17:07:13;32.30;41.50
65072;DHT22;51663;52.310;17.016;2023-08-08T17:10:19;32.40;41.30
65072;DHT22;51663;52.310;17.016;2023-08-08T17:13:21;32.50;41.60
65072;DHT22;51663;52.310;17.016;2023-08-08T17:16:24;32.50;41.60
65072;DHT22;51663;52.310;17.016;2023-08-08T17:19:29;32.50;40.80
65072;DHT22;51663;52.310;17.016;2023-08-08T17:22:33;32.50;41.30
65072;DHT22;51663;52.310;17.016;2023-08-08T17:25:35;32.50;41.60
65072;DHT22;51663;52.310;17.016;2023-08-08T17:28:39;32.50;40.80
65072;DHT22;51663;52.310;17.016;2023-08-08T17:31:41;32.50;41.30
65072;DHT22;51663;52.310;17.016;2023-08-08T17:34:44;32.50;41.00
65072;DHT22;51663;52.310;17.016;2023-08-08T17:37:46;32.50;41.40
65072;DHT22;51663;52.310;17.016;2023-08-08T17:40:52;32.60;40.90
65072;DHT22;51663;52.310;17.016;2023-08-08T17:43:55;32.50;41.00
65072;DHT22;51663;52.310;17.016;2023-08-08T17:46:57;32.40;40.80
65072;DHT22;51663;52.310;17.016;2023-08-08T17:49:59;32.40;41.20
65072;DHT22;51663;52.310;17.016;2023-08-08T17:53:03;32.10;40.80
65072;DHT22;51663;52.310;17.016;2023-08-08T17:56:06;32.10;41.80
65072;DHT22;51663;52.310;17.016;2023-08-08T17:59:08;32.10;40.60
65072;DHT22;51663;52.310;17.016;2023-08-08T18:02:10;32.00;40.70
65072;DHT22;51663;52.310;17.016;2023-08-08T18:05:13;31.80;41.30
65072;DHT22;51663;52.310;17.016;2023-08-08T18:08:16;31.60;40.40
65072;DHT22;51663;52.310;17.016;2023-08-08T18:11:18;31.80;41.50
65072;DHT22;51663;52.310;17.016;2023-08-08T18:14:20;31.90;41.10
65072;DHT22;51663;52.310;17.016;2023-08-08T18:17:25;31.80;41.30
65072;DHT22;51663;52.310;17.016;2023-08-08T18:20:27;31.80;41.70
65072;DHT22;51663;52.310;17.016;2023-08-08T18:23:30;31.80;41.20
65072;DHT22;51663;52.310;17.016;2023-08-08T18:26:34;31.60;40.30
65072;DHT22;51663;52.310;17.016;2023-08-08T18:29:36;31.50;41.10
65072;DHT22;51663;52.310;17.016;2023-08-08T18:32:39;31.40;40.90
65072;DHT22;51663;52.310;17.016;2023-08-08T18:35:42;31.40;41.20
65072;DHT22;51663;52.310;17.016;2023-08-08T18:38:45;31.40;41.80
65072;DHT22;51663;52.310;17.016;2023-08-08T18:41:48;31.50;41.70
65072;DHT22;51663;52.310;17.016;2023-08-08T18:44:52;31.60;41.20
65072;DHT22;51663;52.310;17.016;2023-08-08T18:47:54;31.40;41.60
65072;DHT22;51663;52.310;17.016;2023-08-08T18:50:56;31.40;41.00
65072;DHT22;51663;52.310;17.016;2023-08-08T18:53:59;31.40;41.00
65072;DHT22;51663;52.310;17.016;2023-08-08T18:57:01;31.40;41.00
65072;DHT22;51663;52.310;17.016;2023-08-08T19:00:04;31.30;40.80
65072;DHT22;51663;52.310;17.016;2023-08-08T19:03:08;31.30;41.00